createdAt,value
2018-01-13T00:00:40.821Z,36.17
2018-01-13T00:03:21.383Z,32.17
2018-01-13T00:06:01.748Z,34.72
2018-01-13T00:08:45.057Z,38.10
2018-01-13T00:11:25.124Z,36.13
2018-01-13T00:13:52.716Z,42.87
2018-01-13T00:16:19.576Z,36.90
2018-01-13T00:18:47.255Z,34.23
2018-01-13T00:21:14.308Z,34.45
2018-01-13T00:23:41.331Z,32.83
2018-01-13T00:26:09.021Z,38.75
2018-01-13T00:28:35.924Z,39.28
2018-01-13T00:31:02.892Z,36.50
2018-01-13T00:33:30.567Z,30.90
2018-01-13T00:35:57.419Z,35.70
2018-01-13T00:38:24.271Z,30.45
2018-01-13T00:40:51.203Z,30.87
2018-01-13T00:43:18.863Z,32.27
2018-01-13T00:45:46.471Z,38.47
2018-01-13T00:48:13.439Z,37.20
2018-01-13T00:50:40.338Z,32.73
2018-01-13T00:53:07.268Z,35.83
2018-01-13T00:55:34.187Z,32.70
2018-01-13T00:58:01.049Z,34.80
2018-01-13T01:00:28.020Z,34.20
2018-01-13T01:02:54.984Z,31.92
2018-01-13T01:05:21.845Z,33.22
2018-01-13T01:07:48.782Z,39.25
2018-01-13T01:10:15.634Z,31.20
2018-01-13T01:12:42.571Z,38.47
2018-01-13T01:15:09.518Z,36.42
2018-01-13T01:17:36.439Z,33.83
2018-01-13T01:20:03.303Z,33.50
2018-01-13T01:22:30.195Z,36.33
2018-01-13T01:24:57.860Z,28.62
2018-01-13T01:27:25.442Z,35.28
2018-01-13T01:29:52.368Z,34.55
2018-01-13T01:32:19.971Z,32.17
2018-01-13T01:34:46.896Z,39.03
2018-01-13T01:37:13.751Z,29.35
2018-01-13T01:39:40.748Z,33.88
2018-01-13T01:42:07.610Z,32.05
2018-01-13T01:44:35.214Z,36.77
2018-01-13T01:47:02.155Z,35.25
2018-01-13T01:49:29.103Z,35.00
2018-01-13T01:51:56.012Z,33.20
2018-01-13T01:54:23.693Z,33.70
2018-01-13T01:56:50.871Z,32.53
2018-01-13T01:59:17.811Z,33.38
2018-01-13T02:01:44.675Z,33.00
2018-01-13T02:04:11.583Z,31.87
2018-01-13T02:06:38.455Z,33.88
2018-01-13T02:09:05.366Z,37.30
2018-01-13T02:11:32.288Z,36.05
2018-01-13T02:13:59.911Z,31.27
2018-01-13T02:16:26.781Z,42.28
2018-01-13T02:18:53.707Z,39.38
2018-01-13T02:21:20.588Z,36.97
2018-01-13T02:23:47.439Z,38.58
2018-01-13T02:26:15.099Z,33.38
2018-01-13T02:28:42.709Z,33.95
2018-01-13T02:31:09.623Z,34.70
2018-01-13T02:33:36.544Z,32.03
2018-01-13T02:36:03.458Z,34.53
2018-01-13T02:38:30.405Z,40.25
2018-01-13T02:40:57.263Z,40.47
2018-01-13T02:43:24.121Z,41.15
2018-01-13T02:45:51.046Z,40.50
2018-01-13T02:48:17.915Z,36.13
2018-01-13T02:50:44.887Z,38.40
2018-01-13T02:53:11.828Z,33.25
2018-01-13T02:55:39.439Z,38.08
2018-01-13T02:58:06.299Z,41.25
2018-01-13T03:00:33.256Z,36.63
2018-01-13T03:03:00.175Z,39.60
2018-01-13T03:05:27.043Z,41.50
2018-01-13T03:07:53.995Z,32.05
2018-01-13T03:10:20.872Z,31.80
2018-01-13T03:12:47.742Z,33.85
2018-01-13T03:15:14.676Z,36.78
2018-01-13T03:17:41.526Z,35.25
2018-01-13T03:20:08.408Z,37.60
2018-01-13T03:22:35.335Z,33.47
2018-01-13T03:25:02.223Z,33.78
2018-01-13T03:27:29.903Z,37.95
2018-01-13T03:29:56.758Z,37.03
2018-01-13T03:32:23.689Z,39.05
2018-01-13T03:34:51.285Z,34.83
2018-01-13T03:37:18.123Z,33.90
2018-01-13T03:39:45.127Z,31.42
2018-01-13T03:42:12.723Z,34.10
2018-01-13T03:44:39.671Z,31.77
2018-01-13T03:47:06.598Z,29.83
2018-01-13T03:49:33.478Z,30.48
2018-01-13T03:52:00.399Z,28.60
2018-01-13T03:54:27.335Z,30.08
2018-01-13T03:56:54.256Z,27.77
2018-01-13T03:59:21.909Z,28.02
2018-01-13T04:01:48.772Z,26.80
2018-01-13T04:04:16.446Z,31.43
2018-01-13T04:06:44.054Z,30.17
2018-01-13T04:09:11.008Z,29.73
2018-01-13T04:11:37.953Z,26.27
2018-01-13T04:14:04.807Z,27.58
2018-01-13T04:16:31.742Z,29.15
2018-01-13T04:18:58.600Z,28.75
2018-01-13T04:21:25.533Z,30.70
2018-01-13T04:23:52.391Z,29.60
2018-01-13T04:26:19.327Z,34.53
2018-01-13T04:28:46.252Z,31.55
2018-01-13T04:31:13.101Z,29.37
2018-01-13T04:33:40.023Z,31.62
2018-01-13T04:36:06.939Z,33.92
2018-01-13T04:38:33.782Z,27.30
2018-01-13T04:41:00.691Z,33.08
2018-01-13T04:43:27.550Z,32.45
2018-01-13T04:45:54.539Z,32.08
2018-01-13T04:48:21.466Z,33.28
2018-01-13T04:50:49.071Z,32.53
2018-01-13T04:53:16.046Z,29.25
2018-01-13T04:55:43.083Z,29.48
2018-01-13T04:58:09.956Z,32.83
2018-01-13T05:00:36.882Z,30.62
2018-01-13T05:03:03.722Z,33.28
2018-01-13T05:05:30.646Z,25.10
2018-01-13T05:07:57.574Z,27.83
2018-01-13T05:10:24.524Z,26.65
2018-01-13T05:12:51.379Z,30.10
2018-01-13T05:15:18.257Z,33.07
2018-01-13T05:17:45.175Z,26.17
2018-01-13T05:20:12.035Z,29.65
2018-01-13T05:22:38.982Z,23.20
2018-01-13T05:25:05.915Z,26.60
2018-01-13T05:30:16.458Z,26.52
2018-01-13T05:32:44.066Z,30.23
2018-01-13T05:35:10.923Z,40.40
2018-01-13T05:37:37.855Z,25.45
2018-01-13T05:40:04.704Z,30.67
2018-01-13T05:42:31.623Z,24.40
2018-01-13T05:44:58.488Z,27.90
2018-01-13T05:47:26.755Z,24.77
2018-01-13T05:49:53.686Z,23.50
2018-01-13T05:52:20.535Z,27.23
2018-01-13T05:54:47.563Z,26.35
2018-01-13T05:57:15.166Z,27.05
2018-01-13T05:59:42.073Z,27.03
2018-01-13T06:02:09.671Z,24.85
2018-01-13T06:04:36.583Z,21.83
2018-01-13T06:07:03.434Z,21.17
2018-01-13T06:09:30.400Z,28.15
2018-01-13T06:11:57.350Z,24.67
2018-01-13T06:14:24.272Z,24.70
2018-01-13T06:16:51.116Z,22.40
2018-01-13T06:19:18.037Z,27.63
2018-01-13T06:21:45.632Z,28.98
2018-01-13T06:24:12.599Z,29.23
2018-01-13T06:26:39.452Z,29.60
2018-01-13T06:29:06.379Z,28.12
2018-01-13T06:31:33.228Z,27.63
2018-01-13T06:34:00.160Z,29.73
2018-01-13T06:36:27.010Z,30.30
2018-01-13T06:38:53.877Z,34.60
2018-01-13T06:41:20.808Z,24.73
2018-01-13T06:43:47.727Z,29.50
2018-01-13T06:46:14.726Z,23.87
2018-01-13T06:48:41.623Z,33.87
2018-01-13T06:51:08.553Z,33.33
2018-01-13T06:53:36.148Z,30.60
2018-01-13T06:56:03.064Z,33.22
2018-01-13T06:58:30.772Z,28.70
2018-01-13T07:00:57.738Z,30.23
2018-01-13T07:03:24.574Z,32.27
2018-01-13T07:05:51.431Z,31.60
2018-01-13T07:08:18.354Z,29.87
2018-01-13T07:10:45.194Z,31.77
2018-01-13T07:13:12.044Z,33.80
2018-01-13T07:15:38.956Z,31.23
2018-01-13T07:18:05.809Z,35.45
2018-01-13T07:20:32.733Z,31.70
2018-01-13T07:23:00.375Z,30.12
2018-01-13T07:25:27.514Z,30.00
2018-01-13T07:27:54.723Z,31.83
2018-01-13T07:30:21.591Z,27.73
2018-01-13T07:32:57.970Z,33.63
2018-01-13T07:35:27.383Z,37.90
2018-01-13T07:37:54.314Z,44.78
2018-01-13T07:40:21.169Z,32.47
2018-01-13T07:42:48.101Z,35.80
2018-01-13T07:45:15.147Z,34.28
2018-01-13T07:47:42.111Z,43.00
2018-01-13T07:52:52.855Z,42.78
2018-01-13T07:55:19.888Z,39.10
2018-01-13T07:57:47.534Z,38.80
2018-01-13T08:00:14.483Z,43.08
2018-01-13T08:02:42.324Z,46.22
2018-01-13T08:05:09.894Z,50.90
2018-01-13T08:07:36.821Z,49.33
2018-01-13T08:10:05.390Z,42.00
2018-01-13T08:12:37.091Z,52.40
2018-01-13T08:15:04.045Z,49.03
2018-01-13T08:17:31.638Z,49.67
2018-01-13T08:20:01.573Z,43.40
2018-01-13T08:22:28.452Z,39.60
2018-01-13T08:24:56.359Z,42.60
2018-01-13T08:27:23.226Z,45.63
2018-01-13T08:29:50.251Z,41.58
2018-01-13T08:32:17.095Z,49.93
2018-01-13T08:34:43.942Z,44.97
2018-01-13T08:37:10.858Z,44.20
2018-01-13T08:39:37.712Z,38.23
2018-01-13T08:42:05.401Z,38.90
2018-01-13T08:44:32.267Z,42.22
2018-01-13T08:46:59.190Z,38.58
2018-01-13T08:49:26.072Z,36.20
2018-01-13T08:51:52.923Z,37.92
2018-01-13T08:54:19.848Z,38.00
2018-01-13T08:56:46.779Z,40.67
2018-01-13T08:59:13.702Z,33.47
2018-01-13T09:01:55.629Z,39.72
2018-01-13T09:04:22.540Z,38.33
2018-01-13T09:06:50.138Z,33.17
2018-01-13T09:09:17.063Z,36.90
2018-01-13T09:11:43.989Z,35.28
2018-01-13T09:14:11.642Z,34.53
2018-01-13T09:16:38.502Z,32.73
2018-01-13T09:19:06.169Z,31.95
2018-01-13T09:21:33.070Z,31.70
2018-01-13T09:23:59.999Z,31.70
2018-01-13T09:26:26.851Z,32.03
2018-01-13T09:28:53.766Z,30.00
2018-01-13T09:31:20.628Z,30.87
2018-01-13T09:33:47.478Z,33.57
2018-01-13T09:36:14.404Z,33.17
2018-01-13T09:38:41.252Z,33.87
2018-01-13T09:41:08.100Z,29.73
2018-01-13T09:43:35.050Z,33.10
2018-01-13T09:46:01.929Z,27.98
2018-01-13T09:48:28.862Z,32.33
2018-01-13T09:50:55.795Z,32.07
2018-01-13T09:53:22.702Z,36.17
2018-01-13T09:55:49.732Z,33.30
2018-01-13T09:58:17.335Z,29.17
2018-01-13T10:00:44.310Z,31.60
2018-01-13T10:03:11.174Z,28.92
2018-01-13T10:05:38.095Z,28.87
2018-01-13T10:08:04.967Z,31.57
2018-01-13T10:10:31.887Z,32.63
2018-01-13T10:12:58.830Z,27.30
2018-01-13T10:15:25.689Z,27.00
2018-01-13T10:17:52.620Z,29.90
2018-01-13T10:20:19.470Z,27.27
2018-01-13T10:22:46.347Z,24.87
2018-01-13T10:25:14.006Z,22.77
2018-01-13T10:27:40.942Z,28.20
2018-01-13T10:30:07.866Z,23.73
2018-01-13T10:32:34.733Z,29.17
2018-01-13T10:35:01.590Z,27.83
2018-01-13T10:37:28.533Z,23.37
2018-01-13T10:39:55.486Z,21.83
2018-01-13T10:42:23.170Z,24.50
2018-01-13T10:44:50.035Z,30.50
2018-01-13T10:47:16.963Z,23.17
2018-01-13T10:49:43.812Z,22.00
2018-01-13T10:52:10.723Z,28.97
2018-01-13T10:54:37.636Z,23.90
2018-01-13T10:57:04.581Z,20.87
2018-01-13T10:59:31.424Z,22.77
2018-01-13T11:01:58.374Z,23.00
2018-01-13T11:04:25.217Z,25.27
2018-01-13T11:06:52.080Z,22.43
2018-01-13T11:09:19.011Z,23.27
2018-01-13T11:11:45.874Z,21.07
2018-01-13T11:14:12.805Z,19.90
2018-01-13T11:16:39.746Z,27.67
2018-01-13T11:19:06.663Z,19.50
2018-01-13T11:21:33.533Z,17.20
2018-01-13T11:24:00.444Z,20.50
2018-01-13T11:26:27.387Z,24.30
2018-01-13T11:28:54.317Z,24.27
2018-01-13T11:31:21.896Z,24.27
2018-01-13T11:33:48.797Z,21.17
2018-01-13T11:36:15.703Z,20.87
2018-01-13T11:38:42.639Z,21.53
2018-01-13T11:41:09.487Z,23.43
2018-01-13T11:43:36.407Z,24.30
2018-01-13T11:46:04.070Z,24.83
2018-01-13T11:48:31.648Z,23.80
2018-01-13T11:50:58.643Z,21.70
2018-01-13T11:53:25.571Z,20.27
2018-01-13T11:55:52.438Z,22.67
2018-01-13T11:58:19.362Z,23.03
2018-01-13T12:00:46.234Z,23.07
2018-01-13T12:03:13.211Z,25.17
2018-01-13T12:05:40.077Z,21.50
2018-01-13T12:08:06.902Z,21.63
2018-01-13T12:10:33.817Z,21.47
2018-01-13T12:13:00.707Z,21.00
2018-01-13T12:15:27.635Z,22.47
2018-01-13T12:17:55.280Z,20.40
2018-01-13T12:20:22.217Z,20.07
2018-01-13T12:22:49.147Z,23.13
2018-01-13T12:25:28.178Z,20.50
2018-01-13T12:27:56.718Z,21.97
2018-01-13T12:30:23.696Z,20.53
2018-01-13T12:32:50.567Z,23.30
2018-01-13T12:35:17.483Z,20.43
2018-01-13T12:37:44.335Z,21.20
2018-01-13T12:40:11.261Z,23.47
2018-01-13T12:42:38.121Z,25.10
2018-01-13T12:45:05.099Z,22.83
2018-01-13T12:47:31.961Z,25.30
2018-01-13T12:49:59.630Z,20.20
2018-01-13T12:52:26.530Z,25.20
2018-01-13T12:54:53.465Z,23.97
2018-01-13T12:57:20.427Z,26.80
2018-01-13T12:59:47.292Z,28.37
2018-01-13T13:02:14.227Z,23.50
2018-01-13T13:04:41.088Z,25.53
2018-01-13T13:07:08.671Z,22.67
2018-01-13T13:09:35.706Z,19.87
2018-01-13T13:12:03.308Z,21.02
2018-01-13T13:14:30.158Z,22.00
2018-01-13T13:16:57.097Z,23.10
2018-01-13T13:19:23.998Z,20.83
2018-01-13T13:21:50.979Z,26.03
2018-01-13T13:24:17.845Z,26.50
2018-01-13T13:26:44.774Z,27.33
2018-01-13T13:29:11.635Z,24.77
2018-01-13T13:31:38.511Z,24.13
2018-01-13T13:34:05.422Z,22.00
2018-01-13T13:36:32.407Z,21.37
2018-01-13T13:38:59.351Z,23.60
2018-01-13T13:41:26.271Z,24.30
2018-01-13T13:43:53.114Z,22.60
2018-01-13T13:46:20.047Z,22.50
2018-01-13T13:48:46.960Z,23.43
2018-01-13T13:51:13.907Z,22.77
2018-01-13T13:53:40.753Z,23.00
2018-01-13T13:56:07.651Z,21.00
2018-01-13T13:58:34.561Z,27.73
2018-01-13T14:01:22.150Z,21.50
2018-01-13T14:03:28.486Z,19.20
2018-01-13T14:05:55.323Z,20.90
2018-01-13T14:08:22.267Z,22.43
2018-01-13T14:10:49.180Z,22.67
2018-01-13T14:13:16.067Z,18.73
2018-01-13T14:15:43.042Z,20.20
2018-01-13T14:18:10.696Z,20.83
2018-01-13T14:20:37.600Z,24.60
2018-01-13T14:23:04.527Z,27.40
2018-01-13T14:25:31.384Z,19.93
2018-01-13T14:27:58.308Z,21.80
2018-01-13T14:30:25.175Z,20.47
2018-01-13T14:32:52.617Z,19.90
2018-01-13T14:35:19.471Z,17.95
2018-01-13T14:37:46.443Z,20.50
2018-01-13T14:40:13.291Z,21.03
2018-01-13T14:42:40.177Z,18.37
2018-01-13T14:45:07.864Z,19.03
2018-01-13T14:47:34.733Z,21.70
2018-01-13T14:50:02.264Z,19.70
2018-01-13T14:52:29.220Z,16.90
2018-01-13T14:54:56.085Z,24.23
2018-01-13T14:57:23.071Z,23.65
2018-01-13T14:59:50.671Z,18.85
2018-01-13T15:02:17.691Z,19.53
2018-01-13T15:04:45.381Z,19.77
2018-01-13T15:07:12.301Z,20.80
2018-01-13T15:09:39.985Z,23.10
2018-01-13T15:12:06.891Z,18.27
2018-01-13T15:14:33.836Z,19.35
2018-01-13T15:17:00.724Z,21.87
2018-01-13T15:19:27.703Z,21.73
2018-01-13T15:21:54.623Z,18.98
2018-01-13T15:24:21.503Z,20.52
2018-01-13T15:26:48.438Z,22.00
2018-01-13T15:29:15.383Z,24.30
2018-01-13T15:31:42.242Z,22.10
2018-01-13T15:34:09.208Z,24.23
2018-01-13T15:36:36.799Z,25.05
2018-01-13T15:39:03.839Z,18.10
2018-01-13T15:41:30.759Z,20.40
2018-01-13T15:43:57.642Z,22.13
2018-01-13T15:46:24.576Z,20.20
2018-01-13T15:48:51.449Z,20.83
2018-01-13T15:51:18.377Z,19.00
2018-01-13T15:53:45.241Z,18.50
2018-01-13T15:56:12.154Z,22.07
2018-01-13T15:58:39.043Z,17.87
2018-01-13T16:01:05.975Z,17.83
2018-01-13T16:03:32.962Z,21.07
2018-01-13T16:05:59.810Z,21.43
2018-01-13T16:08:26.676Z,21.80
2018-01-13T16:10:54.360Z,19.92
2018-01-13T16:13:21.201Z,22.73
2018-01-13T16:15:48.094Z,22.02
2018-01-13T16:18:15.107Z,19.42
2018-01-13T16:20:42.108Z,20.90
2018-01-13T16:23:08.995Z,21.30
2018-01-13T16:25:35.850Z,21.62
2018-01-13T16:28:02.795Z,18.98
2018-01-13T16:30:29.686Z,24.05
2018-01-13T16:32:56.612Z,23.58
2018-01-13T16:35:23.584Z,22.20
2018-01-13T16:37:51.251Z,28.30
2018-01-13T16:40:18.878Z,22.40
2018-01-13T16:42:45.751Z,22.60
2018-01-13T16:45:12.805Z,23.05
2018-01-13T16:47:40.404Z,24.98
2018-01-13T16:50:07.277Z,25.88
2018-01-13T16:52:34.202Z,22.70
2018-01-13T16:55:01.076Z,21.25
2018-01-13T16:57:28.067Z,22.70
2018-01-13T16:59:55.582Z,23.42
2018-01-13T17:02:22.563Z,24.52
2018-01-13T17:04:50.184Z,27.50
2018-01-13T17:07:17.099Z,22.05
2018-01-13T17:09:43.964Z,28.12
2018-01-13T17:12:12.331Z,24.63
2018-01-13T17:14:39.271Z,25.05
2018-01-13T17:17:06.215Z,29.17
2018-01-13T17:19:33.151Z,22.65
2018-01-13T17:22:00.031Z,25.27
2018-01-13T17:24:26.965Z,21.65
2018-01-13T17:26:53.829Z,19.92
2018-01-13T17:29:20.722Z,27.45
2018-01-13T17:31:47.647Z,22.42
2018-01-13T17:34:15.233Z,25.75
2018-01-13T17:36:42.166Z,27.30
2018-01-13T17:39:09.847Z,25.05
2018-01-13T17:41:36.696Z,22.20
2018-01-13T17:44:03.566Z,24.90
2018-01-13T17:46:30.499Z,25.65
2018-01-13T17:48:57.384Z,24.37
2018-01-13T17:51:24.376Z,26.77
2018-01-13T17:53:51.228Z,23.00
2018-01-13T17:56:18.147Z,24.65
2018-01-13T17:58:45.921Z,25.27
2018-01-13T18:01:12.852Z,25.30
2018-01-13T18:03:40.500Z,26.65
2018-01-13T18:06:07.450Z,20.62
2018-01-13T18:08:34.308Z,28.85
2018-01-13T18:11:01.926Z,28.90
2018-01-13T18:13:28.875Z,26.58
2018-01-13T18:15:55.745Z,26.58
2018-01-13T18:18:22.774Z,27.17
2018-01-13T18:20:49.721Z,27.42
2018-01-13T18:23:16.600Z,24.02
2018-01-13T18:25:44.288Z,25.40
2018-01-13T18:28:11.168Z,32.92
2018-01-13T18:30:38.074Z,30.20
2018-01-13T18:33:05.063Z,28.35
2018-01-13T18:35:31.936Z,29.60
2018-01-13T18:37:58.864Z,24.20
2018-01-13T18:40:25.864Z,27.95
2018-01-13T18:42:52.752Z,26.75
2018-01-13T18:45:19.619Z,26.37
2018-01-13T18:47:46.557Z,25.48
2018-01-13T18:50:13.427Z,28.60
2018-01-13T18:52:41.798Z,25.92
2018-01-13T18:55:09.479Z,27.80
2018-01-13T18:57:36.430Z,25.48
2018-01-13T19:00:03.471Z,26.20
2018-01-13T19:02:30.338Z,32.35
2018-01-13T19:04:57.270Z,25.65
2018-01-13T19:07:24.198Z,26.92
2018-01-13T19:09:51.871Z,28.25
2018-01-13T19:12:19.555Z,24.35
2018-01-13T19:14:46.399Z,31.73
2018-01-13T19:17:13.330Z,26.65
2018-01-13T19:19:40.241Z,30.10
2018-01-13T19:22:07.194Z,31.20
2018-01-13T19:24:34.855Z,27.10
2018-01-13T19:27:02.545Z,24.08
2018-01-13T19:29:29.423Z,27.30
2018-01-13T19:31:56.435Z,25.60
2018-01-13T19:34:23.353Z,21.30
2018-01-13T19:36:50.276Z,25.95
2018-01-13T19:39:17.147Z,23.38
2018-01-13T19:41:44.120Z,25.70
2018-01-13T19:44:10.978Z,25.00
2018-01-13T19:46:37.897Z,23.65
2018-01-13T19:49:05.495Z,24.37
2018-01-13T19:51:32.363Z,19.57
2018-01-13T19:54:08.244Z,20.10
2018-01-13T19:56:49.116Z,20.08
2018-01-13T19:59:16.782Z,20.50
2018-01-13T20:01:43.634Z,16.25
2018-01-13T20:04:11.386Z,18.83
2018-01-13T20:06:38.260Z,21.50
2018-01-13T20:09:05.857Z,18.62
2018-01-13T20:11:35.184Z,20.45
2018-01-13T20:14:02.068Z,24.20
2018-01-13T20:16:29.746Z,18.77
2018-01-13T20:18:56.657Z,19.10
2018-01-13T20:21:24.006Z,17.73
2018-01-13T20:24:03.234Z,23.55
2018-01-13T20:26:41.293Z,19.58
2018-01-13T20:29:08.558Z,17.65
2018-01-13T20:31:46.341Z,19.40
2018-01-13T20:34:23.869Z,19.80
2018-01-13T20:37:03.871Z,21.15
2018-01-13T20:39:44.206Z,22.73
2018-01-13T20:42:13.269Z,26.62
2018-01-13T20:44:50.360Z,24.48
2018-01-13T20:47:24.090Z,18.77
2018-01-13T20:49:59.515Z,20.77
2018-01-13T20:52:37.244Z,20.30
2018-01-13T20:55:15.291Z,21.15
2018-01-13T20:57:52.118Z,23.20
2018-01-13T21:00:20.271Z,20.12
2018-01-13T21:02:59.429Z,18.50
2018-01-13T21:05:38.179Z,17.42
2018-01-13T21:08:07.554Z,21.75
2018-01-13T21:10:42.784Z,18.25
2018-01-13T21:13:17.906Z,24.73
2018-01-13T21:15:48.403Z,20.73
2018-01-13T21:18:16.277Z,20.12
2018-01-13T21:20:44.045Z,22.17
2018-01-13T21:23:12.075Z,18.02
2018-01-13T21:25:39.735Z,22.65
2018-01-13T21:28:07.728Z,19.62
2018-01-13T21:30:36.011Z,19.55
2018-01-13T21:33:03.681Z,23.95
2018-01-13T21:35:31.336Z,20.08
2018-01-13T21:37:58.520Z,22.73
2018-01-13T21:40:37.267Z,24.55
2018-01-13T21:43:10.394Z,23.10
2018-01-13T21:45:50.943Z,22.35
2018-01-13T21:48:26.844Z,20.15
2018-01-13T21:51:04.181Z,20.88
2018-01-13T21:53:43.629Z,23.08
2018-01-13T21:56:21.544Z,22.75
2018-01-13T21:59:00.793Z,21.95
2018-01-13T22:01:39.237Z,21.62
2018-01-13T22:04:11.334Z,23.40
2018-01-13T22:06:48.929Z,26.12
2018-01-13T22:09:23.729Z,23.12
2018-01-13T22:11:55.942Z,23.62
2018-01-13T22:14:29.372Z,19.23
2018-01-13T22:17:02.009Z,22.25
2018-01-13T22:19:40.582Z,23.62
2018-01-13T22:22:19.455Z,20.10
2018-01-13T22:24:57.742Z,21.85
2018-01-13T22:27:35.130Z,20.12
2018-01-13T22:30:15.134Z,24.80
2018-01-13T22:32:51.389Z,26.85
2018-01-13T22:35:31.847Z,23.40
2018-01-13T22:38:09.243Z,21.40
2018-01-13T22:40:47.056Z,25.92
2018-01-13T22:43:20.745Z,22.55
2018-01-13T22:45:57.223Z,22.27
2018-01-13T22:48:38.862Z,26.08
2018-01-13T22:51:17.614Z,22.98
2018-01-13T22:53:54.855Z,19.45
2018-01-13T22:56:34.510Z,24.65
2018-01-13T22:59:12.708Z,25.85
2018-01-13T23:01:47.652Z,23.23
2018-01-13T23:04:17.382Z,25.50
2018-01-13T23:06:47.056Z,24.52
2018-01-13T23:09:16.892Z,19.35
2018-01-13T23:11:45.112Z,22.20
2018-01-13T23:14:12.148Z,20.80
2018-01-13T23:16:39.081Z,25.60
2018-01-13T23:19:06.003Z,18.52
2018-01-13T23:21:32.929Z,21.12
2018-01-13T23:24:00.530Z,22.75
2018-01-13T23:26:27.452Z,20.70
2018-01-13T23:28:54.310Z,22.17
2018-01-13T23:31:21.224Z,22.75
2018-01-13T23:33:48.902Z,23.75
2018-01-13T23:36:15.750Z,21.55
2018-01-13T23:38:42.783Z,22.52
2018-01-13T23:41:10.394Z,21.10
2018-01-13T23:43:37.248Z,25.83
2018-01-13T23:46:04.152Z,22.65
2018-01-13T23:48:31.011Z,20.23
2018-01-13T23:50:57.943Z,23.12
2018-01-13T23:53:24.795Z,22.73
2018-01-13T23:55:51.703Z,21.95
2018-01-13T23:58:18.543Z,20.60
